Time;durP1;ratioP1;P1;durP2;ratioP2;P2;SDS_P1;SDS_P2;PMS_P1;PMS_P2;Temp;Humidity;BMP_temperature;BMP_pressure;BME280_temperature;BME280_humidity;BME280_pressure;Samples;Min_cycle;Max_cycle;Signal;HPM_P1;HPM_P2
2023/05/06 00:02:16;;;;;;;;;8.75;8.75;;;;;;;;120111;1190;25284;-74
2023/05/06 00:04:44;;;;;;;;;10.00;6.67;;;;;;;;120110;1190;25166;-74
2023/05/06 00:07:13;;;;;;;;;8.75;7.50;;;;;;;;119936;1187;25390;-73
2023/05/06 00:09:41;;;;;;;;;7.50;6.50;;;;;;;;120140;1186;25419;-73
2023/05/06 00:12:09;;;;;;;;;9.67;7.67;;;;;;;;120115;1190;25168;-73
2023/05/06 00:14:37;;;;;;;;;11.75;10.00;;;;;;;;120131;1181;25536;-73
2023/05/06 00:17:06;;;;;;;;;6.00;5.25;;;;;;;;120112;1186;25562;-73
2023/05/06 00:19:34;;;;;;;;;8.75;7.75;;;;;;;;119951;1190;25105;-73
2023/05/06 00:22:03;;;;;;;;;7.25;7.25;;;;;;;;120113;1182;24761;-73
2023/05/06 00:24:31;;;;;;;;;11.67;10.00;;;;;;;;119935;1186;25092;-73
2023/05/06 00:27:00;;;;;;;;;9.00;9.00;;;;;;;;119928;1190;25337;-73
2023/05/06 00:29:28;;;;;;;;;9.00;7.00;;;;;;;;119926;1182;24927;-72
2023/05/06 00:31:56;;;;;;;;;11.25;9.25;;;;;;;;119932;1190;25416;-73
2023/05/06 00:34:25;;;;;;;;;8.25;8.25;;;;;;;;119915;1190;24865;-73
2023/05/06 00:36:53;;;;;;;;;8.75;6.00;;;;;;;;119897;1190;25189;-74
2023/05/06 00:39:21;;;;;;;;;8.67;8.00;;;;;;;;120000;1181;26102;-73
2023/05/06 00:41:50;;;;;;;;;9.75;8.50;;;;;;;;120122;1190;25332;-73
2023/05/06 00:44:18;;;;;;;;;8.00;8.00;;;;;;;;120104;1190;25583;-74
2023/05/06 00:46:46;;;;;;;;;8.67;8.67;;;;;;;;120130;1182;25334;-74
2023/05/06 00:49:15;;;;;;;;;5.50;5.50;;;;;;;;119950;1183;24755;-73
2023/05/06 00:51:43;;;;;;;;;10.50;9.00;;;;;;;;119914;1190;24775;-74
2023/05/06 00:54:12;;;;;;;;;8.75;7.00;;;;;;;;120124;1186;25508;-73
2023/05/06 00:56:41;;;;;;;;;11.50;8.50;;;;;;;;120105;1190;25231;-73
2023/05/06 00:59:09;;;;;;;;;8.00;8.00;;;;;;;;119944;1189;25209;-74
2023/05/06 01:01:37;;;;;;;;;7.50;7.50;;;;;;;;120096;1189;25525;-74
2023/05/06 01:04:07;;;;;;;;;7.50;7.25;;;;;;;;120117;1189;24984;-74
2023/05/06 01:06:48;;;;;;;;;6.00;6.00;;;;;;;;120124;1182;25282;-73
2023/05/06 01:09:32;;;;;;;;;7.00;6.33;;;;;;;;119926;1190;25291;-75
2023/05/06 01:12:09;;;;;;;;;7.00;7.00;;;;;;;;119946;1190;24829;-74
2023/05/06 01:14:43;;;;;;;;;8.00;7.00;;;;;;;;119937;1190;25663;-73
2023/05/06 01:17:12;;;;;;;;;9.33;8.00;;;;;;;;119951;1190;25602;-73
2023/05/06 01:19:47;;;;;;;;;10.00;9.00;;;;;;;;119941;1190;24960;-73
2023/05/06 01:22:17;;;;;;;;;7.00;7.00;;;;;;;;120110;1189;24758;-74
2023/05/06 01:24:45;;;;;;;;;6.00;6.00;;;;;;;;119948;1189;25042;-74
2023/05/06 01:27:15;;;;;;;;;11.25;8.25;;;;;;;;119950;1189;24790;-73
2023/05/06 01:29:45;;;;;;;;;8.00;8.00;;;;;;;;120106;1189;25009;-74
2023/05/06 01:32:41;;;;;;;;;7.33;6.33;;;;;;;;120111;1181;25147;-74
2023/05/06 01:35:09;;;;;;;;;7.75;7.75;;;;;;;;120109;1190;24917;-74
2023/05/06 01:37:45;;;;;;;;;9.00;8.00;;;;;;;;120084;1190;25097;-73
2023/05/06 01:40:15;;;;;;;;;4.75;4.75;;;;;;;;119907;1190;25688;-74
2023/05/06 01:42:48;;;;;;;;;9.75;8.00;;;;;;;;119941;1190;25525;-74
2023/05/06 01:45:17;;;;;;;;;8.25;6.25;;;;;;;;119945;1190;24716;-73
2023/05/06 01:47:45;;;;;;;;;7.67;6.67;;;;;;;;119925;1190;26168;-73
2023/05/06 01:50:14;;;;;;;;;7.50;7.50;;;;;;;;119972;1190;25600;-73
2023/05/06 01:52:42;;;;;;;;;7.00;7.00;;;;;;;;119935;1190;25448;-73
2023/05/06 01:55:11;;;;;;;;;8.50;7.00;;;;;;;;120111;1190;25463;-73
2023/05/06 01:57:39;;;;;;;;;8.67;7.33;;;;;;;;120130;1190;25586;-73
2023/05/06 02:00:08;;;;;;;;;11.25;6.25;;;;;;;;119938;1190;25437;-68
2023/05/06 02:02:36;;;;;;;;;8.00;7.00;;;;;;;;120063;1186;25143;-73
2023/05/06 02:05:05;;;;;;;;;7.00;7.00;;;;;;;;120079;1190;25394;-73
2023/05/06 02:07:34;;;;;;;;;8.50;8.50;;;;;;;;119930;1190;25518;-74
2023/05/06 02:10:03;;;;;;;;;8.33;7.33;;;;;;;;120110;1190;24775;-74
2023/05/06 02:12:31;;;;;;;;;7.75;5.75;;;;;;;;120123;1189;24982;-74
2023/05/06 02:14:59;;;;;;;;;11.67;8.00;;;;;;;;120119;1189;26101;-74
2023/05/06 02:17:28;;;;;;;;;8.25;7.00;;;;;;;;120139;1181;25088;-74
2023/05/06 02:19:56;;;;;;;;;8.00;7.00;;;;;;;;120106;1189;25188;-74
2023/05/06 02:22:24;;;;;;;;;8.00;6.50;;;;;;;;120005;1190;24841;-74
2023/05/06 02:24:52;;;;;;;;;6.00;6.00;;;;;;;;119934;1190;25463;-73
2023/05/06 02:27:21;;;;;;;;;8.00;7.75;;;;;;;;119941;1190;25357;-74
2023/05/06 02:29:50;;;;;;;;;8.00;6.50;;;;;;;;119890;1190;24818;-74
2023/05/06 02:32:18;;;;;;;;;8.50;7.00;;;;;;;;119941;1190;25638;-74
2023/05/06 02:34:46;;;;;;;;;6.75;6.75;;;;;;;;119920;1189;24970;-73
2023/05/06 02:37:14;;;;;;;;;9.50;8.00;;;;;;;;119927;1190;26750;-74
2023/05/06 02:39:42;;;;;;;;;10.50;7.25;;;;;;;;119931;1190;25533;-74
2023/05/06 02:42:17;;;;;;;;;7.75;6.25;;;;;;;;119944;1182;25490;-75
2023/05/06 02:44:46;;;;;;;;;10.33;8.67;;;;;;;;119896;1190;25350;-74
2023/05/06 02:47:14;;;;;;;;;9.00;7.00;;;;;;;;119887;1190;25108;-73
2023/05/06 02:49:42;;;;;;;;;7.00;7.00;;;;;;;;119922;1190;24764;-74
2023/05/06 02:52:10;;;;;;;;;7.25;7.25;;;;;;;;120040;1190;24848;-75
2023/05/06 02:54:39;;;;;;;;;6.50;6.50;;;;;;;;120095;1183;24937;-74
2023/05/06 02:57:07;;;;;;;;;9.67;8.33;;;;;;;;120119;1182;24987;-74
2023/05/06 02:59:35;;;;;;;;;8.00;7.00;;;;;;;;120101;1189;24687;-74
2023/05/06 03:02:04;;;;;;;;;7.67;7.67;;;;;;;;120120;1181;25231;-73
2023/05/06 03:04:32;;;;;;;;;5.33;5.33;;;;;;;;120109;1190;25192;-74
2023/05/06 03:07:01;;;;;;;;;5.67;5.67;;;;;;;;120127;1190;25310;-73
2023/05/06 03:09:29;;;;;;;;;9.00;8.00;;;;;;;;120117;1182;25143;-73
2023/05/06 03:11:57;;;;;;;;;6.75;6.25;;;;;;;;120108;1190;24774;-74
2023/05/06 03:14:25;;;;;;;;;7.50;7.00;;;;;;;;120117;1189;24682;-73
2023/05/06 03:16:53;;;;;;;;;8.00;6.33;;;;;;;;120107;1190;25610;-71
2023/05/06 03:19:22;;;;;;;;;8.25;6.00;;;;;;;;120132;1177;25030;-73
2023/05/06 03:21:50;;;;;;;;;10.00;9.00;;;;;;;;119945;1190;25610;-73
2023/05/06 03:24:19;;;;;;;;;7.00;6.00;;;;;;;;120103;1190;25653;-74
2023/05/06 03:26:47;;;;;;;;;6.50;6.50;;;;;;;;119943;1182;25738;-72
2023/05/06 03:29:15;;;;;;;;;8.00;6.50;;;;;;;;120089;1190;25174;-73
2023/05/06 03:31:44;;;;;;;;;8.75;7.25;;;;;;;;120163;1189;25043;-72
2023/05/06 03:34:12;;;;;;;;;9.00;7.33;;;;;;;;120121;1190;25452;-72
2023/05/06 03:36:40;;;;;;;;;8.50;8.50;;;;;;;;120108;1189;24992;-73
2023/05/06 03:39:09;;;;;;;;;6.50;6.50;;;;;;;;119946;1190;24912;-71
2023/05/06 03:41:37;;;;;;;;;8.00;7.75;;;;;;;;120101;1187;25031;-72
2023/05/06 03:44:05;;;;;;;;;8.00;7.67;;;;;;;;119954;1189;24733;-72
2023/05/06 03:46:33;;;;;;;;;8.00;6.00;;;;;;;;119943;1190;25081;-72
2023/05/06 03:49:02;;;;;;;;;11.00;9.50;;;;;;;;120120;1190;24926;-72
2023/05/06 03:51:30;;;;;;;;;7.67;6.67;;;;;;;;120133;1189;25488;-72
2023/05/06 03:53:59;;;;;;;;;7.67;7.67;;;;;;;;120109;1190;25373;-72
2023/05/06 03:56:27;;;;;;;;;9.25;8.00;;;;;;;;119956;1182;25433;-72
2023/05/06 03:58:55;;;;;;;;;8.00;7.25;;;;;;;;120112;1189;25054;-73
2023/05/06 04:01:23;;;;;;;;;7.67;6.67;;;;;;;;120108;1190;25384;-73
2023/05/06 04:03:53;;;;;;;;;7.00;6.50;;;;;;;;120114;1190;25185;-72
2023/05/06 04:06:21;;;;;;;;;9.00;9.00;;;;;;;;120107;1190;24985;-72
2023/05/06 04:08:50;;;;;;;;;8.67;7.33;;;;;;;;120125;1190;25111;-72
2023/05/06 04:11:18;;;;;;;;;11.25;8.50;;;;;;;;119953;1182;25697;-71
2023/05/06 04:13:46;;;;;;;;;9.33;9.00;;;;;;;;119953;1190;25621;-72
2023/05/06 04:16:14;;;;;;;;;6.00;6.00;;;;;;;;119941;1190;24986;-72
2023/05/06 04:18:44;;;;;;;;;7.00;6.00;;;;;;;;119899;1182;25237;-71
2023/05/06 04:21:13;;;;;;;;;9.25;7.00;;;;;;;;119930;1190;25785;-71
2023/05/06 04:23:41;;;;;;;;;10.33;8.00;;;;;;;;120045;1182;24856;-72
2023/05/06 04:26:09;;;;;;;;;7.25;6.75;;;;;;;;119925;1190;24718;-70
2023/05/06 04:28:38;;;;;;;;;8.25;7.00;;;;;;;;120117;1186;25320;-75
2023/05/06 04:31:07;;;;;;;;;9.00;7.50;;;;;;;;120118;1190;24711;-76
2023/05/06 04:33:35;;;;;;;;;7.25;7.25;;;;;;;;120112;1190;25231;-75
2023/05/06 04:36:05;;;;;;;;;9.25;6.25;;;;;;;;120123;1190;25045;-74
2023/05/06 04:38:34;;;;;;;;;14.67;9.00;;;;;;;;120115;1190;25208;-77
2023/05/06 04:41:04;;;;;;;;;7.50;7.50;;;;;;;;120052;1189;24891;-71
2023/05/06 04:43:32;;;;;;;;;7.25;4.75;;;;;;;;119881;1190;25155;-70
2023/05/06 04:46:01;;;;;;;;;6.75;4.75;;;;;;;;119926;1190;24696;-71
2023/05/06 04:48:29;;;;;;;;;7.00;7.00;;;;;;;;120092;1181;25566;-66
2023/05/06 04:50:57;;;;;;;;;7.25;6.00;;;;;;;;120092;1186;25390;-72
2023/05/06 04:53:25;;;;;;;;;8.00;8.00;;;;;;;;120127;1189;24935;-75
2023/05/06 04:55:54;;;;;;;;;6.33;5.67;;;;;;;;120120;1189;25221;-65
2023/05/06 04:58:23;;;;;;;;;4.75;3.25;;;;;;;;119954;1190;25172;-62
2023/05/06 05:00:51;;;;;;;;;7.67;7.67;;;;;;;;119949;1182;24835;-66
2023/05/06 05:03:19;;;;;;;;;7.00;6.00;;;;;;;;119950;1190;25646;-63
2023/05/06 05:05:48;;;;;;;;;8.25;7.00;;;;;;;;120066;1190;25197;-62
2023/05/06 05:08:16;;;;;;;;;11.25;9.50;;;;;;;;120007;1182;25216;-66
2023/05/06 05:10:44;;;;;;;;;8.25;5.00;;;;;;;;120066;1181;25532;-62
2023/05/06 05:13:13;;;;;;;;;12.00;10.75;;;;;;;;120012;1190;25501;-67
2023/05/06 05:15:41;;;;;;;;;9.00;9.00;;;;;;;;119923;1187;25238;-72
2023/05/06 05:18:10;;;;;;;;;10.25;10.25;;;;;;;;120056;1186;25575;-73
2023/05/06 05:20:38;;;;;;;;;7.67;7.00;;;;;;;;120032;1182;25563;-75
2023/05/06 05:23:06;;;;;;;;;11.25;9.00;;;;;;;;119949;1186;25342;-65
2023/05/06 05:25:34;;;;;;;;;10.75;7.50;;;;;;;;120067;1186;24941;-70
2023/05/06 05:28:03;;;;;;;;;10.00;10.00;;;;;;;;120105;1190;25291;-75
2023/05/06 05:30:31;;;;;;;;;12.67;12.33;;;;;;;;120097;1186;25624;-77
2023/05/06 05:32:59;;;;;;;;;12.00;10.25;;;;;;;;120106;1184;25670;-79
2023/05/06 05:35:27;;;;;;;;;11.50;9.50;;;;;;;;120109;1190;25346;-71
2023/05/06 05:37:56;;;;;;;;;11.00;9.75;;;;;;;;120020;1186;25130;-72
2023/05/06 05:40:24;;;;;;;;;10.67;10.33;;;;;;;;120053;1182;24871;-73
2023/05/06 05:42:53;;;;;;;;;11.67;10.00;;;;;;;;119992;1186;25331;-72
2023/05/06 05:45:21;;;;;;;;;9.00;8.00;;;;;;;;119950;1178;24822;-73
2023/05/06 05:47:49;;;;;;;;;10.00;10.00;;;;;;;;119916;1187;25041;-75
2023/05/06 05:50:18;;;;;;;;;11.50;11.50;;;;;;;;119915;1190;24924;-75
2023/05/06 05:52:46;;;;;;;;;11.00;10.00;;;;;;;;120063;1186;25468;-71
2023/05/06 05:55:14;;;;;;;;;11.00;10.75;;;;;;;;120042;1182;25257;-73
2023/05/06 05:57:42;;;;;;;;;14.50;10.50;;;;;;;;119971;1177;24825;-73
2023/05/06 06:00:11;;;;;;;;;11.33;10.33;;;;;;;;119981;1176;24987;-74
2023/05/06 06:02:40;;;;;;;;;10.75;8.00;;;;;;;;119927;1187;25319;-77
2023/05/06 06:05:09;;;;;;;;;14.50;12.75;;;;;;;;120034;1190;25699;-74
2023/05/06 06:07:38;;;;;;;;;11.00;11.00;;;;;;;;120068;1186;24722;-74
2023/05/06 06:10:07;;;;;;;;;16.00;12.50;;;;;;;;119800;1189;25938;-74
2023/05/06 06:12:36;;;;;;;;;9.00;9.00;;;;;;;;120053;1186;25219;-70
2023/05/06 06:15:04;;;;;;;;;11.33;10.33;;;;;;;;120057;1186;25614;-74
2023/05/06 06:17:33;;;;;;;;;11.00;9.25;;;;;;;;119883;1179;24994;-75
2023/05/06 06:20:01;;;;;;;;;11.00;9.00;;;;;;;;119945;1190;25554;-78
2023/05/06 06:22:29;;;;;;;;;8.00;8.00;;;;;;;;119910;1183;24856;-78
2023/05/06 06:24:57;;;;;;;;;10.33;8.67;;;;;;;;119964;1186;25654;-76
2023/05/06 06:27:26;;;;;;;;;14.25;9.75;;;;;;;;119922;1187;25085;-75
2023/05/06 06:29:54;;;;;;;;;11.00;11.00;;;;;;;;120024;1186;24788;-78
2023/05/06 06:32:22;;;;;;;;;10.00;10.00;;;;;;;;120028;1182;25185;-73
2023/05/06 06:34:50;;;;;;;;;11.50;11.25;;;;;;;;119964;1190;25607;-72
2023/05/06 06:37:19;;;;;;;;;10.67;10.67;;;;;;;;120034;1189;25650;-77
2023/05/06 06:39:47;;;;;;;;;10.75;9.50;;;;;;;;119908;1187;24781;-79
2023/05/06 06:42:15;;;;;;;;;10.75;9.75;;;;;;;;119904;1182;25502;-85
2023/05/06 06:44:43;;;;;;;;;11.50;9.50;;;;;;;;119725;1188;25377;-67
2023/05/06 06:47:12;;;;;;;;;12.00;11.00;;;;;;;;120025;1190;25762;-78
2023/05/06 06:49:40;;;;;;;;;11.25;9.00;;;;;;;;120126;1190;24874;-69
2023/05/06 06:52:08;;;;;;;;;12.00;9.75;;;;;;;;120113;1181;25498;-75
2023/05/06 06:54:37;;;;;;;;;11.75;10.00;;;;;;;;119945;1182;24812;-73
2023/05/06 06:57:05;;;;;;;;;11.50;9.75;;;;;;;;120098;1190;25600;-80
2023/05/06 06:59:34;;;;;;;;;10.50;9.75;;;;;;;;120019;1186;24830;-75
2023/05/06 07:02:02;;;;;;;;;11.75;10.25;;;;;;;;119915;1187;26081;-64
2023/05/06 07:04:30;;;;;;;;;9.75;8.50;;;;;;;;120104;1190;25444;-61
2023/05/06 07:06:59;;;;;;;;;10.50;10.50;;;;;;;;120114;1190;25116;-62
2023/05/06 07:09:27;;;;;;;;;7.00;7.00;;;;;;;;119985;1182;25319;-61
2023/05/06 07:11:57;;;;;;;;;10.00;10.00;;;;;;;;120115;1190;25289;-61
2023/05/06 07:14:26;;;;;;;;;9.33;9.33;;;;;;;;120122;1182;25948;-62
2023/05/06 07:16:54;;;;;;;;;14.67;11.00;;;;;;;;119885;1187;25057;-61
2023/05/06 07:19:23;;;;;;;;;12.25;8.25;;;;;;;;120004;1190;24881;-66
2023/05/06 07:21:51;;;;;;;;;12.00;10.00;;;;;;;;119990;1186;25683;-66
2023/05/06 07:24:19;;;;;;;;;12.00;11.33;;;;;;;;120073;1185;24786;-66
2023/05/06 07:26:48;;;;;;;;;12.75;9.50;;;;;;;;119851;1186;25357;-67
2023/05/06 07:29:16;;;;;;;;;12.00;10.67;;;;;;;;120030;1190;25281;-66
2023/05/06 07:31:44;;;;;;;;;9.67;9.00;;;;;;;;120014;1190;25292;-67
2023/05/06 07:34:13;;;;;;;;;14.50;11.50;;;;;;;;120009;1176;24766;-69
2023/05/06 07:36:42;;;;;;;;;14.00;12.00;;;;;;;;119919;1178;24959;-69
2023/05/06 07:39:11;;;;;;;;;11.33;10.67;;;;;;;;120054;1177;24934;-65
2023/05/06 07:41:39;;;;;;;;;10.75;9.50;;;;;;;;119917;1190;24831;-69
2023/05/06 07:44:08;;;;;;;;;10.00;8.75;;;;;;;;119929;1190;25182;-66
2023/05/06 07:46:37;;;;;;;;;10.50;10.50;;;;;;;;119977;1181;25177;-61
2023/05/06 07:49:06;;;;;;;;;12.75;11.50;;;;;;;;119908;1182;25418;-62
2023/05/06 07:51:34;;;;;;;;;12.00;11.25;;;;;;;;120033;1181;24868;-63
2023/05/06 07:54:03;;;;;;;;;16.25;15.50;;;;;;;;120030;1177;25188;-66
2023/05/06 07:56:32;;;;;;;;;12.00;11.00;;;;;;;;120033;1176;25571;-64
2023/05/06 07:59:00;;;;;;;;;14.00;12.25;;;;;;;;119930;1186;25184;-63
2023/05/06 08:01:28;;;;;;;;;13.00;11.67;;;;;;;;119936;1183;25610;-64
2023/05/06 08:03:59;;;;;;;;;14.25;13.25;;;;;;;;119868;1190;24807;-63
2023/05/06 08:06:27;;;;;;;;;11.75;10.50;;;;;;;;120046;1183;25417;-64
2023/05/06 08:08:55;;;;;;;;;11.00;10.00;;;;;;;;119911;1190;25338;-64
2023/05/06 08:11:24;;;;;;;;;11.50;9.00;;;;;;;;120063;1186;24818;-63
2023/05/06 08:13:52;;;;;;;;;6.50;5.75;;;;;;;;120064;1186;25766;-64
2023/05/06 08:16:20;;;;;;;;;9.75;7.50;;;;;;;;120000;1182;25506;-66
2023/05/06 08:18:52;;;;;;;;;9.33;9.33;;;;;;;;120011;1186;25007;-69
2023/05/06 08:21:20;;;;;;;;;11.75;10.50;;;;;;;;119989;1190;25029;-66
2023/05/06 08:23:48;;;;;;;;;8.67;8.00;;;;;;;;120014;1182;25564;-68
2023/05/06 08:26:17;;;;;;;;;8.00;8.00;;;;;;;;120001;1186;25232;-64
2023/05/06 08:28:45;;;;;;;;;7.25;7.00;;;;;;;;119991;1176;25596;-61
2023/05/06 08:31:13;;;;;;;;;9.00;7.00;;;;;;;;120048;1181;25726;-62
2023/05/06 08:33:42;;;;;;;;;10.25;7.50;;;;;;;;119983;1186;24839;-64
2023/05/06 08:36:10;;;;;;;;;9.00;7.75;;;;;;;;119903;1190;25292;-64
2023/05/06 08:38:38;;;;;;;;;13.75;7.25;;;;;;;;119969;1186;25773;-67
2023/05/06 08:41:09;;;;;;;;;8.00;7.00;;;;;;;;119892;1182;25061;-67
2023/05/06 08:43:41;;;;;;;;;7.67;7.67;;;;;;;;119880;1190;25487;-61
2023/05/06 08:46:09;;;;;;;;;10.00;8.00;;;;;;;;119882;1190;25159;-64
2023/05/06 08:48:38;;;;;;;;;6.00;6.00;;;;;;;;119988;1186;25249;-61
2023/05/06 08:51:07;;;;;;;;;8.67;7.33;;;;;;;;120002;1182;25476;-64
2023/05/06 08:53:36;;;;;;;;;9.00;7.50;;;;;;;;119940;1183;25248;-63
2023/05/06 08:56:07;;;;;;;;;11.00;8.00;;;;;;;;119949;1182;25261;-64
2023/05/06 08:58:38;;;;;;;;;5.75;5.75;;;;;;;;120005;1181;24820;-64
2023/05/06 09:01:06;;;;;;;;;8.25;6.50;;;;;;;;120025;1186;25175;-61
2023/05/06 09:03:35;;;;;;;;;7.75;7.75;;;;;;;;120005;1190;24822;-61
2023/05/06 09:06:03;;;;;;;;;9.00;8.00;;;;;;;;119977;1176;25631;-60
2023/05/06 09:08:32;;;;;;;;;6.25;5.00;;;;;;;;119909;1182;25578;-61
2023/05/06 09:11:00;;;;;;;;;9.50;7.00;;;;;;;;120005;1190;25404;-61
2023/05/06 09:13:29;;;;;;;;;7.00;6.00;;;;;;;;119942;1190;24764;-61
2023/05/06 09:15:57;;;;;;;;;8.00;6.00;;;;;;;;119941;1186;24942;-62
2023/05/06 09:18:25;;;;;;;;;7.50;7.00;;;;;;;;119891;1189;25502;-63
2023/05/06 09:20:53;;;;;;;;;6.67;6.67;;;;;;;;120075;1184;25103;-63
2023/05/06 09:23:21;;;;;;;;;9.25;6.75;;;;;;;;120153;1188;25587;-67
2023/05/06 09:25:50;;;;;;;;;6.33;4.00;;;;;;;;120209;1188;24946;-65
2023/05/06 09:28:18;;;;;;;;;11.00;6.00;;;;;;;;120204;1188;25129;-65
2023/05/06 09:30:46;;;;;;;;;10.00;7.00;;;;;;;;120206;1189;24887;-65
2023/05/06 09:33:15;;;;;;;;;7.67;7.00;;;;;;;;120189;1189;24805;-65
2023/05/06 09:35:44;;;;;;;;;9.50;7.25;;;;;;;;120134;1190;24843;-64
2023/05/06 09:38:12;;;;;;;;;10.25;8.75;;;;;;;;120107;1190;25429;-65
2023/05/06 09:40:41;;;;;;;;;8.00;6.33;;;;;;;;120111;1182;25441;-65
2023/05/06 09:43:09;;;;;;;;;4.75;4.75;;;;;;;;120105;1186;25013;-65
2023/05/06 09:45:38;;;;;;;;;7.00;6.00;;;;;;;;120132;1190;25502;-65
2023/05/06 09:48:07;;;;;;;;;9.33;4.67;;;;;;;;120114;1190;25014;-66
2023/05/06 09:50:35;;;;;;;;;5.00;5.00;;;;;;;;120115;1189;25074;-65
2023/05/06 09:53:04;;;;;;;;;5.00;5.00;;;;;;;;119937;1182;25451;-67
2023/05/06 09:55:33;;;;;;;;;3.75;3.50;;;;;;;;119950;1182;24853;-68
2023/05/06 09:58:03;;;;;;;;;4.00;4.00;;;;;;;;119949;1190;25346;-68
2023/05/06 10:00:32;;;;;;;;;4.67;4.00;;;;;;;;120157;1182;24881;-68
2023/05/06 10:03:01;;;;;;;;;6.50;5.25;;;;;;;;120094;1189;25240;-66
2023/05/06 10:05:31;;;;;;;;;6.00;4.67;;;;;;;;119922;1190;25473;-67
2023/05/06 10:08:00;;;;;;;;;6.00;5.00;;;;;;;;119955;1186;25600;-70
2023/05/06 10:10:29;;;;;;;;;6.33;5.00;;;;;;;;119916;1190;24848;-70
2023/05/06 10:12:58;;;;;;;;;7.00;6.25;;;;;;;;119986;1182;24759;-70
2023/05/06 10:15:26;;;;;;;;;6.00;4.50;;;;;;;;120080;1186;25049;-70
2023/05/06 10:17:55;;;;;;;;;10.00;7.00;;;;;;;;120069;1186;25298;-70
2023/05/06 10:20:24;;;;;;;;;11.00;6.00;;;;;;;;119923;1187;25471;-70
2023/05/06 10:23:07;;;;;;;;;8.00;5.00;;;;;;;;119910;1187;24877;-70
2023/05/06 10:25:41;;;;;;;;;4.00;4.00;;;;;;;;120044;1186;25735;-70
2023/05/06 10:28:10;;;;;;;;;5.75;5.00;;;;;;;;119929;1187;25433;-70
2023/05/06 10:30:52;;;;;;;;;4.50;4.25;;;;;;;;120017;1190;24807;-70
2023/05/06 10:33:23;;;;;;;;;5.33;5.33;;;;;;;;119978;1182;25302;-70
2023/05/06 10:36:19;;;;;;;;;4.25;4.25;;;;;;;;119942;1190;25183;-70
2023/05/06 10:38:55;;;;;;;;;6.33;5.00;;;;;;;;119947;1186;25464;-70
2023/05/06 10:41:26;;;;;;;;;4.25;4.25;;;;;;;;119975;1183;24928;-70
2023/05/06 10:43:56;;;;;;;;;5.00;5.00;;;;;;;;119903;1190;25295;-70
2023/05/06 10:46:28;;;;;;;;;5.00;4.00;;;;;;;;119812;1190;25081;-70
2023/05/06 10:49:05;;;;;;;;;6.75;4.75;;;;;;;;119811;1190;25564;-68
2023/05/06 10:51:35;;;;;;;;;5.25;5.25;;;;;;;;120117;1190;25544;-68
2023/05/06 10:54:05;;;;;;;;;4.50;3.50;;;;;;;;119916;1190;25080;-68
2023/05/06 10:57:01;;;;;;;;;5.50;5.50;;;;;;;;119940;1190;24988;-67
2023/05/06 10:59:30;;;;;;;;;5.00;5.00;;;;;;;;120094;1190;24869;-69
2023/05/06 11:02:01;;;;;;;;;5.00;3.00;;;;;;;;120118;1190;25330;-67
2023/05/06 11:04:30;;;;;;;;;2.50;2.50;;;;;;;;120116;1181;25670;-69
2023/05/06 11:07:11;;;;;;;;;4.50;3.00;;;;;;;;119936;1190;24717;-68
2023/05/06 11:10:06;;;;;;;;;4.67;4.67;;;;;;;;119937;1190;25076;-68
2023/05/06 11:12:52;;;;;;;;;6.75;3.75;;;;;;;;119913;1187;25565;-66
2023/05/06 11:15:40;;;;;;;;;7.00;5.00;;;;;;;;119936;1190;25750;-66
2023/05/06 11:18:23;;;;;;;;;5.75;4.50;;;;;;;;120119;1185;24726;-65
2023/05/06 11:21:03;;;;;;;;;5.33;4.00;;;;;;;;120127;1190;25230;-67
2023/05/06 11:23:40;;;;;;;;;6.00;5.00;;;;;;;;120126;1190;25506;-64
2023/05/06 11:26:10;;;;;;;;;4.75;4.00;;;;;;;;120120;1190;25231;-69
2023/05/06 11:28:41;;;;;;;;;4.67;4.00;;;;;;;;119917;1190;25613;-65
2023/05/06 11:31:10;;;;;;;;;5.67;5.00;;;;;;;;119947;1182;25196;-66
2023/05/06 11:33:47;;;;;;;;;4.00;4.00;;;;;;;;120315;1176;25762;-65
2023/05/06 11:36:19;;;;;;;;;8.00;6.00;;;;;;;;120170;1186;25642;-68
2023/05/06 11:38:50;;;;;;;;;8.33;7.67;;;;;;;;120001;1190;24897;-68
2023/05/06 11:41:18;;;;;;;;;6.50;4.00;;;;;;;;119995;1190;25607;-67
2023/05/06 11:43:51;;;;;;;;;4.67;4.00;;;;;;;;119918;1190;24895;-67
2023/05/06 11:46:21;;;;;;;;;4.00;4.00;;;;;;;;119842;1189;25201;-67
2023/05/06 11:48:50;;;;;;;;;5.00;5.00;;;;;;;;119917;1190;24746;-67
2023/05/06 11:51:21;;;;;;;;;4.75;3.00;;;;;;;;120024;1182;24738;-67
2023/05/06 11:53:51;;;;;;;;;6.50;4.00;;;;;;;;120029;1182;24763;-68
2023/05/06 11:56:20;;;;;;;;;0.33;0.33;;;;;;;;120042;1186;26103;-67
2023/05/06 11:58:48;;;;;;;;;3.50;3.50;;;;;;;;120012;1182;25162;-68
2023/05/06 12:01:16;;;;;;;;;4.33;3.67;;;;;;;;120010;1182;25161;-68
2023/05/06 12:03:44;;;;;;;;;4.25;3.00;;;;;;;;119913;1187;24914;-67
2023/05/06 12:06:13;;;;;;;;;4.00;4.00;;;;;;;;119924;1182;25711;-67
2023/05/06 12:08:41;;;;;;;;;1.00;1.00;;;;;;;;119898;1190;25287;-65
2023/05/06 12:11:10;;;;;;;;;3.00;3.00;;;;;;;;119873;1190;25466;-64
2023/05/06 12:13:39;;;;;;;;;2.00;2.00;;;;;;;;119893;1190;25774;-65
2023/05/06 12:16:08;;;;;;;;;4.75;3.00;;;;;;;;119923;1190;25218;-65
2023/05/06 12:18:37;;;;;;;;;3.33;3.33;;;;;;;;120003;1186;26544;-65
2023/05/06 12:21:06;;;;;;;;;2.33;2.00;;;;;;;;119902;1190;25436;-65
2023/05/06 12:23:34;;;;;;;;;4.50;4.00;;;;;;;;119819;1190;25161;-65
2023/05/06 12:26:04;;;;;;;;;3.50;3.50;;;;;;;;119998;1190;25550;-65
2023/05/06 12:28:34;;;;;;;;;4.50;3.25;;;;;;;;119951;1186;25062;-66
2023/05/06 12:31:22;;;;;;;;;3.00;3.00;;;;;;;;120101;1186;25023;-65
2023/05/06 12:33:50;;;;;;;;;4.25;3.00;;;;;;;;119918;1187;25262;-66
2023/05/06 12:36:19;;;;;;;;;3.00;3.00;;;;;;;;119897;1190;25204;-66
2023/05/06 12:38:59;;;;;;;;;4.00;3.75;;;;;;;;119891;1190;25447;-65
2023/05/06 12:41:39;;;;;;;;;4.00;4.00;;;;;;;;119930;1190;25114;-65
2023/05/06 12:44:36;;;;;;;;;2.75;2.00;;;;;;;;119928;1187;25603;-64
2023/05/06 12:47:06;;;;;;;;;3.50;3.50;;;;;;;;120116;1182;24789;-64
2023/05/06 12:49:53;;;;;;;;;4.67;2.67;;;;;;;;120042;1183;26457;-64
2023/05/06 12:52:23;;;;;;;;;2.25;2.00;;;;;;;;119928;1190;25455;-65
2023/05/06 12:54:51;;;;;;;;;3.75;3.75;;;;;;;;120100;1190;25662;-68
2023/05/06 12:57:20;;;;;;;;;4.00;4.00;;;;;;;;119933;1190;25474;-70
2023/05/06 12:59:49;;;;;;;;;6.25;4.75;;;;;;;;119940;1190;25177;-67
2023/05/06 13:02:17;;;;;;;;;4.25;4.25;;;;;;;;119925;1189;24895;-66
2023/05/06 13:04:46;;;;;;;;;5.50;3.00;;;;;;;;119869;1189;25292;-66
2023/05/06 13:07:14;;;;;;;;;3.67;3.33;;;;;;;;119931;1190;24844;-66
2023/05/06 13:09:43;;;;;;;;;2.00;2.00;;;;;;;;119903;1190;24703;-67
2023/05/06 13:12:11;;;;;;;;;3.33;3.33;;;;;;;;119936;1190;25673;-66
2023/05/06 13:14:40;;;;;;;;;2.75;2.75;;;;;;;;119929;1190;25097;-67
2023/05/06 13:17:08;;;;;;;;;3.50;3.50;;;;;;;;119905;1190;24762;-66
2023/05/06 13:19:37;;;;;;;;;1.50;1.50;;;;;;;;119904;1190;25628;-67
2023/05/06 13:22:05;;;;;;;;;2.50;2.50;;;;;;;;119962;1186;24962;-67
2023/05/06 13:24:33;;;;;;;;;4.50;4.00;;;;;;;;120125;1181;25168;-67
2023/05/06 13:27:01;;;;;;;;;5.00;5.00;;;;;;;;120111;1189;25174;-67
2023/05/06 13:29:30;;;;;;;;;4.00;4.00;;;;;;;;119949;1190;25462;-67
2023/05/06 13:31:59;;;;;;;;;2.67;2.67;;;;;;;;120109;1189;24914;-67
2023/05/06 13:34:28;;;;;;;;;3.00;3.00;;;;;;;;120106;1189;25335;-67
2023/05/06 13:36:57;;;;;;;;;4.33;3.33;;;;;;;;119947;1182;25140;-68
2023/05/06 13:39:25;;;;;;;;;3.00;3.00;;;;;;;;119780;1189;24746;-66
2023/05/06 13:41:54;;;;;;;;;5.00;4.00;;;;;;;;120114;1189;25147;-67
2023/05/06 13:44:23;;;;;;;;;4.25;4.25;;;;;;;;120097;1189;24949;-62
2023/05/06 13:46:51;;;;;;;;;3.00;2.50;;;;;;;;120112;1182;25338;-61
2023/05/06 13:49:20;;;;;;;;;4.00;3.00;;;;;;;;120124;1181;25981;-61
2023/05/06 13:51:48;;;;;;;;;1.00;1.00;;;;;;;;120112;1189;25038;-61
2023/05/06 13:54:17;;;;;;;;;7.00;4.00;;;;;;;;120104;1189;25033;-61
2023/05/06 13:56:45;;;;;;;;;4.00;3.00;;;;;;;;120101;1182;25006;-64
2023/05/06 13:59:13;;;;;;;;;4.25;2.75;;;;;;;;120132;1190;25664;-61
2023/05/06 14:01:42;;;;;;;;;4.75;2.00;;;;;;;;119963;1190;24724;-62
2023/05/06 14:04:11;;;;;;;;;3.00;3.00;;;;;;;;120118;1190;24833;-66
2023/05/06 14:06:39;;;;;;;;;3.50;2.50;;;;;;;;120100;1190;25675;-66
2023/05/06 14:09:07;;;;;;;;;5.00;3.00;;;;;;;;120100;1190;24907;-66
2023/05/06 14:11:35;;;;;;;;;8.25;4.50;;;;;;;;120113;1189;25105;-67
2023/05/06 14:14:05;;;;;;;;;3.00;3.00;;;;;;;;120113;1189;24785;-65
2023/05/06 14:16:33;;;;;;;;;3.67;3.00;;;;;;;;119940;1182;24765;-66
2023/05/06 14:19:01;;;;;;;;;5.33;5.00;;;;;;;;120097;1186;25008;-71
2023/05/06 14:21:30;;;;;;;;;3.67;3.67;;;;;;;;119978;1186;24873;-68
2023/05/06 14:23:59;;;;;;;;;3.50;2.50;;;;;;;;119959;1190;24742;-68
2023/05/06 14:26:27;;;;;;;;;3.50;3.50;;;;;;;;120117;1182;25927;-66
2023/05/06 14:28:55;;;;;;;;;4.67;4.67;;;;;;;;120005;1186;25177;-68
2023/05/06 14:31:25;;;;;;;;;3.33;3.33;;;;;;;;119987;1190;25270;-68
2023/05/06 14:33:53;;;;;;;;;4.75;4.00;;;;;;;;119916;1182;24919;-67
2023/05/06 14:36:21;;;;;;;;;4.50;2.75;;;;;;;;119907;1190;25222;-67
2023/05/06 14:38:50;;;;;;;;;3.00;3.00;;;;;;;;119994;1186;25197;-66
2023/05/06 14:41:18;;;;;;;;;5.00;4.00;;;;;;;;120000;1186;25515;-67